Time;durP1;ratioP1;P1;durP2;ratioP2;P2;SDS_P1;SDS_P2;PMS_P1;PMS_P2;Temp;Humidity;BMP_temperature;BMP_pressure;BME280_temperature;BME280_humidity;BME280_pressure;Samples;Min_cycle;Max_cycle;Signal;HPM_P1;HPM_P2
2023/02/18 00:01:45;;;;;;;;;;;;;;;;;;5094335;28;19988;-70
2023/02/18 00:04:11;;;;;;;;;;;;;;;;;;5094019;28;19920;-70
2023/02/18 00:06:37;;;;;;;;;;;;;;;;;;5093837;28;19909;-70
2023/02/18 00:09:03;;;;;;;;;;;;;;;;;;5093951;28;19915;-70
2023/02/18 00:11:29;;;;;;;;;;;;;;;;;;5094002;28;20361;-70
2023/02/18 00:13:55;;;;;;;;;;;;;;;;;;5093519;28;19908;-70
2023/02/18 00:16:21;;;;;;;;;;;;;;;;;;5092626;28;19947;-70
2023/02/18 00:18:47;;;;;;;;;;;;;;;;;;5092528;28;20299;-70
2023/02/18 00:21:13;;;;;;;;;;;;;;;;;;5092207;28;20284;-70
2023/02/18 00:23:39;;;;;;;;;;;;;;;;;;5093498;28;20272;-71
2023/02/18 00:26:05;;;;;;;;;;;;;;;;;;5094055;28;19962;-71
2023/02/18 00:28:31;;;;;;;;;;;;;;;;;;5093585;28;19912;-71
2023/02/18 00:30:57;;;;;;;;;;;;;;;;;;5093914;28;19912;-71
2023/02/18 00:33:23;;;;;;;;;;;;;;;;;;5092239;28;20011;-71
2023/02/18 00:35:49;;;;;;;;;;;;;;;;;;5092858;28;19908;-70
2023/02/18 00:38:15;;;;;;;;;;;;;;;;;;5092372;28;19908;-71
2023/02/18 00:40:40;;;;;;;;;;;;;;;;;;5092004;28;19935;-71
2023/02/18 00:43:06;;;;;;;;;;;;;;;;;;5093613;28;19952;-71
2023/02/18 00:45:32;;;;;;;;;;;;;;;;;;5092696;28;19920;-71
2023/02/18 00:47:58;;;;;;;;;;;;;;;;;;5097342;28;19908;-71
2023/02/18 00:50:24;;;;;;;;;;;;;;;;;;5097678;28;19908;-71
2023/02/18 00:52:50;;;;;;;;;;;;;;;;;;5097680;28;19912;-71
2023/02/18 00:55:16;;;;;;;;;;;;;;;;;;5097266;28;19922;-71
2023/02/18 00:57:42;;;;;;;;;;;;;;;;;;5096221;28;19908;-71
2023/02/18 01:00:08;;;;;;;;;;;;;;;;;;5096163;28;19915;-71
2023/02/18 01:02:34;;;;;;;;;;;;;;;;;;5097075;28;19908;-71
2023/02/18 01:05:00;;;;;;;;;;;;;;;;;;5097488;28;19916;-71
2023/02/18 01:07:26;;;;;;;;;;;;;;;;;;5097523;28;19915;-71
2023/02/18 01:09:52;;;;;;;;;;;;;;;;;;5095752;28;20469;-71
2023/02/18 01:12:18;;;;;;;;;;;;;;;;;;5097260;28;20008;-71
2023/02/18 01:14:44;;;;;;;;;;;;;;;;;;5097304;28;19915;-71
2023/02/18 01:17:10;;;;;;;;;;;;;;;;;;5096878;28;19908;-71
2023/02/18 01:19:36;;;;;;;;;;;;;;;;;;5095893;28;19914;-71
2023/02/18 01:22:02;;;;;;;;;;;;;;;;;;5095817;28;19923;-71
2023/02/18 01:24:27;;;;;;;;;;;;;;;;;;5096475;28;19920;-71
2023/02/18 01:26:53;;;;;;;;;;;;;;;;;;5097064;28;19909;-71
2023/02/18 01:29:19;;;;;;;;;;;;;;;;;;5095660;28;19947;-71
2023/02/18 01:31:45;;;;;;;;;;;;;;;;;;5096575;28;19908;-71
2023/02/18 01:34:11;;;;;;;;;;;;;;;;;;5095741;28;19915;-71
2023/02/18 01:36:37;;;;;;;;;;;;;;;;;;5096391;28;20003;-70
2023/02/18 01:39:03;;;;;;;;;;;;;;;;;;5096840;28;19909;-70
2023/02/18 01:41:29;;;;;;;;;;;;;;;;;;5095623;28;19961;-70
2023/02/18 01:43:55;;;;;;;;;;;;;;;;;;5096214;28;19995;-70
2023/02/18 01:46:21;;;;;;;;;;;;;;;;;;5096784;28;19919;-71
2023/02/18 01:48:47;;;;;;;;;;;;;;;;;;5096571;28;19915;-71
2023/02/18 01:51:13;;;;;;;;;;;;;;;;;;5094916;28;19908;-71
2023/02/18 01:53:39;;;;;;;;;;;;;;;;;;5095220;28;19914;-71
2023/02/18 01:56:05;;;;;;;;;;;;;;;;;;5094957;28;19908;-71
2023/02/18 01:58:31;;;;;;;;;;;;;;;;;;5095735;28;20007;-71
2023/02/18 02:00:57;;;;;;;;;;;;;;;;;;5096394;28;19915;-71
2023/02/18 02:03:23;;;;;;;;;;;;;;;;;;5096243;28;19961;-71
2023/02/18 02:05:48;;;;;;;;;;;;;;;;;;5095895;28;19931;-70
2023/02/18 02:08:14;;;;;;;;;;;;;;;;;;5094877;28;19943;-71
2023/02/18 02:10:40;;;;;;;;;;;;;;;;;;5094892;28;19916;-71
2023/02/18 02:13:06;;;;;;;;;;;;;;;;;;5094409;28;19908;-71
2023/02/18 02:15:32;;;;;;;;;;;;;;;;;;5096311;28;19955;-71
2023/02/18 02:17:58;;;;;;;;;;;;;;;;;;5094775;28;19908;-71
2023/02/18 02:20:24;;;;;;;;;;;;;;;;;;5095590;28;19934;-72
2023/02/18 02:22:50;;;;;;;;;;;;;;;;;;5094600;28;20003;-71
2023/02/18 02:25:16;;;;;;;;;;;;;;;;;;5095643;28;19920;-71
2023/02/18 02:27:42;;;;;;;;;;;;;;;;;;5095338;28;19976;-71
2023/02/18 02:30:08;;;;;;;;;;;;;;;;;;5095787;28;19978;-72
2023/02/18 02:32:34;;;;;;;;;;;;;;;;;;5095659;28;19915;-71
2023/02/18 02:35:00;;;;;;;;;;;;;;;;;;5095354;28;19909;-71
2023/02/18 02:37:26;;;;;;;;;;;;;;;;;;5095629;28;19989;-72
2023/02/18 02:39:51;;;;;;;;;;;;;;;;;;5095197;28;19908;-71
2023/02/18 02:42:17;;;;;;;;;;;;;;;;;;5095543;28;19999;-71
2023/02/18 02:44:43;;;;;;;;;;;;;;;;;;5095590;28;19924;-71
2023/02/18 02:47:09;;;;;;;;;;;;;;;;;;5095076;28;19908;-71
2023/02/18 02:49:35;;;;;;;;;;;;;;;;;;5096249;28;19908;-71
2023/02/18 02:52:01;;;;;;;;;;;;;;;;;;5095373;28;19908;-71
2023/02/18 02:54:27;;;;;;;;;;;;;;;;;;5094949;28;19908;-71
2023/02/18 02:56:53;;;;;;;;;;;;;;;;;;5093950;28;20403;-71
2023/02/18 02:59:19;;;;;;;;;;;;;;;;;;5093930;28;19911;-72
2023/02/18 03:01:45;;;;;;;;;;;;;;;;;;5094862;28;19914;-71
2023/02/18 03:04:11;;;;;;;;;;;;;;;;;;5093847;28;19916;-71
2023/02/18 03:06:37;;;;;;;;;;;;;;;;;;5095156;28;19961;-71
2023/02/18 03:09:03;;;;;;;;;;;;;;;;;;5093884;28;20002;-71
2023/02/18 03:11:29;;;;;;;;;;;;;;;;;;5095043;28;19912;-71
2023/02/18 03:13:55;;;;;;;;;;;;;;;;;;5095062;28;20006;-71
2023/02/18 03:16:22;;;;;;;;;;;;;;;;;;5094736;28;20014;-71
2023/02/18 03:18:48;;;;;;;;;;;;;;;;;;5094832;28;19908;-71
2023/02/18 03:21:14;;;;;;;;;;;;;;;;;;5094842;28;20384;-71
2023/02/18 03:23:40;;;;;;;;;;;;;;;;;;5094184;28;20405;-71
2023/02/18 03:26:06;;;;;;;;;;;;;;;;;;5094760;28;20385;-71
2023/02/18 03:28:32;;;;;;;;;;;;;;;;;;5093618;28;20322;-72
2023/02/18 03:30:58;;;;;;;;;;;;;;;;;;5094276;28;19915;-71
2023/02/18 03:33:24;;;;;;;;;;;;;;;;;;5094621;28;19908;-71
2023/02/18 03:35:50;;;;;;;;;;;;;;;;;;5094600;28;20015;-71
2023/02/18 03:38:16;;;;;;;;;;;;;;;;;;5092870;28;19908;-71
2023/02/18 03:40:42;;;;;;;;;;;;;;;;;;5093221;28;19923;-72
2023/02/18 03:43:08;;;;;;;;;;;;;;;;;;5094158;28;20383;-71
2023/02/18 03:45:34;;;;;;;;;;;;;;;;;;5094352;28;19922;-71
2023/02/18 03:48:00;;;;;;;;;;;;;;;;;;5094320;28;20369;-71
2023/02/18 03:50:26;;;;;;;;;;;;;;;;;;5093915;28;19908;-71
2023/02/18 03:52:52;;;;;;;;;;;;;;;;;;5094310;28;19908;-71
2023/02/18 03:55:18;;;;;;;;;;;;;;;;;;5094307;28;19915;-71
2023/02/18 03:57:44;;;;;;;;;;;;;;;;;;5093783;28;19908;-71
2023/02/18 04:00:10;;;;;;;;;;;;;;;;;;5094165;28;19908;-71
2023/02/18 04:02:36;;;;;;;;;;;;;;;;;;5094071;28;19908;-71
2023/02/18 04:05:02;;;;;;;;;;;;;;;;;;5093772;28;19923;-71
2023/02/18 04:07:28;;;;;;;;;;;;;;;;;;5094034;28;20326;-71
2023/02/18 04:09:54;;;;;;;;;;;;;;;;;;5093986;28;19908;-71
2023/02/18 04:12:20;;;;;;;;;;;;;;;;;;5093593;28;19908;-71
2023/02/18 04:14:46;;;;;;;;;;;;;;;;;;5093911;28;19912;-71
2023/02/18 04:17:12;;;;;;;;;;;;;;;;;;5093967;28;19914;-71
2023/02/18 04:19:38;;;;;;;;;;;;;;;;;;5092105;28;19916;-71
2023/02/18 04:22:04;;;;;;;;;;;;;;;;;;5092627;28;19962;-71
2023/02/18 04:24:29;;;;;;;;;;;;;;;;;;5093470;28;20007;-72
2023/02/18 04:26:55;;;;;;;;;;;;;;;;;;5092165;28;19912;-70
2023/02/18 04:29:21;;;;;;;;;;;;;;;;;;5093808;28;19908;-72
2023/02/18 04:31:47;;;;;;;;;;;;;;;;;;5094013;28;19950;-71
2023/02/18 04:34:13;;;;;;;;;;;;;;;;;;5092146;28;19908;-72
2023/02/18 04:36:39;;;;;;;;;;;;;;;;;;5093874;28;19909;-70
2023/02/18 04:39:05;;;;;;;;;;;;;;;;;;5092547;28;20292;-71
2023/02/18 04:41:31;;;;;;;;;;;;;;;;;;5093352;28;20241;-71
2023/02/18 04:43:58;;;;;;;;;;;;;;;;;;5093679;28;20331;-71
2023/02/18 04:46:24;;;;;;;;;;;;;;;;;;5092033;28;19912;-71
2023/02/18 04:48:50;;;;;;;;;;;;;;;;;;5093641;28;19923;-71
2023/02/18 04:51:16;;;;;;;;;;;;;;;;;;5093683;28;19908;-71
2023/02/18 04:53:42;;;;;;;;;;;;;;;;;;5093385;28;19912;-71
2023/02/18 04:56:08;;;;;;;;;;;;;;;;;;5093824;28;19948;-71
2023/02/18 04:58:34;;;;;;;;;;;;;;;;;;5093830;28;19962;-71
2023/02/18 05:01:00;;;;;;;;;;;;;;;;;;5093254;28;19908;-71
2023/02/18 05:03:26;;;;;;;;;;;;;;;;;;5093653;28;20330;-70
2023/02/18 05:05:51;;;;;;;;;;;;;;;;;;5093347;28;19916;-71
2023/02/18 05:08:17;;;;;;;;;;;;;;;;;;5093446;28;19908;-70
2023/02/18 05:10:43;;;;;;;;;;;;;;;;;;5093512;28;20264;-70
2023/02/18 05:13:09;;;;;;;;;;;;;;;;;;5092136;28;19970;-71
2023/02/18 05:15:35;;;;;;;;;;;;;;;;;;5093059;28;19915;-71
2023/02/18 05:18:01;;;;;;;;;;;;;;;;;;5093442;28;19908;-71
2023/02/18 05:20:27;;;;;;;;;;;;;;;;;;5093333;28;19961;-71
2023/02/18 05:22:53;;;;;;;;;;;;;;;;;;5093164;28;19912;-70
2023/02/18 05:25:19;;;;;;;;;;;;;;;;;;5092889;28;19989;-71
2023/02/18 05:27:45;;;;;;;;;;;;;;;;;;5093231;28;19909;-71
2023/02/18 05:30:11;;;;;;;;;;;;;;;;;;5092910;28;20347;-71
2023/02/18 05:32:37;;;;;;;;;;;;;;;;;;5095301;28;20257;-70
2023/02/18 05:35:03;;;;;;;;;;;;;;;;;;5095658;28;19916;-70
2023/02/18 05:37:29;;;;;;;;;;;;;;;;;;5095232;28;19912;-70
2023/02/18 05:39:55;;;;;;;;;;;;;;;;;;5096789;28;19999;-70
2023/02/18 05:42:22;;;;;;;;;;;;;;;;;;5096755;28;19912;-70
2023/02/18 05:44:48;;;;;;;;;;;;;;;;;;5096257;28;19962;-71
2023/02/18 05:47:14;;;;;;;;;;;;;;;;;;5096634;28;20359;-70
2023/02/18 05:49:39;;;;;;;;;;;;;;;;;;5096251;28;19931;-70
2023/02/18 05:52:05;;;;;;;;;;;;;;;;;;5096572;28;19908;-70
2023/02/18 05:54:31;;;;;;;;;;;;;;;;;;5096469;28;19914;-70
2023/02/18 05:56:57;;;;;;;;;;;;;;;;;;5096116;28;20357;-70
2023/02/18 05:59:23;;;;;;;;;;;;;;;;;;5096585;28;20378;-70
2023/02/18 06:01:49;;;;;;;;;;;;;;;;;;5096417;28;20292;-70
2023/02/18 06:04:15;;;;;;;;;;;;;;;;;;5095872;28;19918;-70
2023/02/18 06:06:41;;;;;;;;;;;;;;;;;;5096262;28;19908;-70
2023/02/18 06:09:07;;;;;;;;;;;;;;;;;;5095000;28;19914;-71
2023/02/18 06:11:33;;;;;;;;;;;;;;;;;;5095865;28;19908;-71
2023/02/18 06:13:59;;;;;;;;;;;;;;;;;;5096238;28;19908;-71
2023/02/18 06:16:25;;;;;;;;;;;;;;;;;;5096154;28;19909;-71
2023/02/18 06:18:51;;;;;;;;;;;;;;;;;;5095637;28;19912;-70
2023/02/18 06:21:17;;;;;;;;;;;;;;;;;;5096009;28;19908;-70
2023/02/18 06:23:43;;;;;;;;;;;;;;;;;;5094417;28;19920;-70
2023/02/18 06:26:08;;;;;;;;;;;;;;;;;;5077416;28;20021;-71
2023/02/18 06:28:34;;;;;;;;;;;;;;;;;;5095790;28;19947;-71
2023/02/18 06:31:00;;;;;;;;;;;;;;;;;;5077627;28;19912;-70
2023/02/18 06:33:26;;;;;;;;;;;;;;;;;;5095370;28;20006;-71
2023/02/18 06:35:52;;;;;;;;;;;;;;;;;;5077545;28;19908;-71
2023/02/18 06:38:19;;;;;;;;;;;;;;;;;;5095722;28;19909;-71
2023/02/18 06:40:45;;;;;;;;;;;;;;;;;;5077048;28;19908;-71
2023/02/18 06:43:11;;;;;;;;;;;;;;;;;;5095593;28;19912;-71
2023/02/18 06:45:37;;;;;;;;;;;;;;;;;;5095434;28;19920;-71
2023/02/18 06:48:03;;;;;;;;;;;;;;;;;;5095173;28;19962;-71
2023/02/18 06:50:29;;;;;;;;;;;;;;;;;;5077283;28;19912;-71
2023/02/18 06:52:55;;;;;;;;;;;;;;;;;;5095424;28;19908;-70
2023/02/18 06:55:21;;;;;;;;;;;;;;;;;;5076972;28;20280;-71
2023/02/18 06:57:47;;;;;;;;;;;;;;;;;;5095310;28;19916;-71
2023/02/18 07:00:13;;;;;;;;;;;;;;;;;;5076705;28;19915;-71
2023/02/18 07:02:39;;;;;;;;;;;;;;;;;;5095324;28;19908;-71
2023/02/18 07:05:05;;;;;;;;;;;;;;;;;;5076958;28;19970;-71
2023/02/18 07:07:31;;;;;;;;;;;;;;;;;;5094810;28;19966;-71
2023/02/18 07:09:56;;;;;;;;;;;;;;;;;;5076949;28;20288;-71
2023/02/18 07:12:22;;;;;;;;;;;;;;;;;;5095083;28;20327;-71
2023/02/18 07:14:49;;;;;;;;;;;;;;;;;;5094610;28;19908;-71
2023/02/18 07:17:15;;;;;;;;;;;;;;;;;;5077013;28;19908;-71
2023/02/18 07:19:41;;;;;;;;;;;;;;;;;;5076744;28;20265;-71
2023/02/18 07:22:07;;;;;;;;;;;;;;;;;;5094515;28;20363;-71
2023/02/18 07:24:33;;;;;;;;;;;;;;;;;;5082874;28;19921;-71
2023/02/18 07:26:59;;;;;;;;;;;;;;;;;;5094861;28;19908;-71
2023/02/18 07:29:25;;;;;;;;;;;;;;;;;;5094334;28;19908;-71
2023/02/18 07:31:51;;;;;;;;;;;;;;;;;;5094609;28;19995;-71
2023/02/18 07:34:17;;;;;;;;;;;;;;;;;;5094604;28;19916;-71
2023/02/18 07:36:43;;;;;;;;;;;;;;;;;;5092949;28;19908;-71
2023/02/18 07:39:10;;;;;;;;;;;;;;;;;;5094522;28;19912;-71
2023/02/18 07:41:36;;;;;;;;;;;;;;;;;;5094480;28;19953;-71
2023/02/18 07:44:02;;;;;;;;;;;;;;;;;;5092671;28;19908;-71
2023/02/18 07:46:28;;;;;;;;;;;;;;;;;;5094473;28;20004;-72
2023/02/18 07:48:54;;;;;;;;;;;;;;;;;;5093087;28;19930;-71
2023/02/18 07:51:20;;;;;;;;;;;;;;;;;;5093926;28;19953;-71
2023/02/18 07:53:46;;;;;;;;;;;;;;;;;;5093009;28;19931;-71
2023/02/18 07:56:12;;;;;;;;;;;;;;;;;;5093720;28;19916;-70
2023/02/18 07:58:38;;;;;;;;;;;;;;;;;;5093858;28;19916;-70
2023/02/18 08:01:04;;;;;;;;;;;;;;;;;;5094113;28;20296;-70
2023/02/18 08:03:29;;;;;;;;;;;;;;;;;;5093577;28;19931;-71
2023/02/18 08:05:55;;;;;;;;;;;;;;;;;;5093902;28;19985;-70
2023/02/18 08:08:21;;;;;;;;;;;;;;;;;;5094051;28;19908;-71
2023/02/18 08:10:47;;;;;;;;;;;;;;;;;;5093612;28;19999;-70
2023/02/18 08:13:13;;;;;;;;;;;;;;;;;;5093953;28;20292;-70
2023/02/18 08:15:39;;;;;;;;;;;;;;;;;;5093899;28;20290;-70
2023/02/18 08:18:05;;;;;;;;;;;;;;;;;;5093519;28;19908;-70
2023/02/18 08:20:31;;;;;;;;;;;;;;;;;;5093822;28;19991;-70
2023/02/18 08:22:57;;;;;;;;;;;;;;;;;;5092627;28;19954;-70
2023/02/18 08:25:23;;;;;;;;;;;;;;;;;;5093221;28;19920;-70
2023/02/18 08:27:49;;;;;;;;;;;;;;;;;;5093932;28;19954;-70
2023/02/18 08:30:15;;;;;;;;;;;;;;;;;;5075601;28;19908;-69
2023/02/18 08:32:41;;;;;;;;;;;;;;;;;;5075231;28;19912;-70
2023/02/18 08:35:07;;;;;;;;;;;;;;;;;;5094000;28;19954;-70
2023/02/18 08:37:33;;;;;;;;;;;;;;;;;;5093806;28;19916;-71
2023/02/18 08:39:59;;;;;;;;;;;;;;;;;;5075099;28;19908;-70
2023/02/18 08:42:25;;;;;;;;;;;;;;;;;;5093749;28;19951;-70
2023/02/18 08:44:51;;;;;;;;;;;;;;;;;;5093769;28;20021;-70
2023/02/18 08:47:17;;;;;;;;;;;;;;;;;;5093351;28;19908;-70
2023/02/18 08:49:43;;;;;;;;;;;;;;;;;;5093660;28;19915;-70
2023/02/18 08:52:09;;;;;;;;;;;;;;;;;;5075494;28;20379;-71
2023/02/18 08:54:35;;;;;;;;;;;;;;;;;;5093116;28;20264;-70
2023/02/18 08:57:01;;;;;;;;;;;;;;;;;;5093702;28;19927;-70
2023/02/18 08:59:27;;;;;;;;;;;;;;;;;;5093530;28;20002;-71
2023/02/18 09:01:53;;;;;;;;;;;;;;;;;;5075069;28;19908;-70
2023/02/18 09:04:20;;;;;;;;;;;;;;;;;;5093437;28;19912;-70
2023/02/18 09:06:45;;;;;;;;;;;;;;;;;;5076061;28;20298;-70
2023/02/18 09:09:11;;;;;;;;;;;;;;;;;;5097437;28;19908;-70
2023/02/18 09:11:37;;;;;;;;;;;;;;;;;;5097543;28;20025;-69
2023/02/18 09:14:03;;;;;;;;;;;;;;;;;;5097081;28;19909;-69
2023/02/18 09:16:29;;;;;;;;;;;;;;;;;;5097262;28;20375;-71
2023/02/18 09:18:55;;;;;;;;;;;;;;;;;;5097281;28;20374;-70
2023/02/18 09:21:22;;;;;;;;;;;;;;;;;;5096755;28;19908;-70
2023/02/18 09:23:48;;;;;;;;;;;;;;;;;;5096830;28;19923;-70
2023/02/18 09:26:14;;;;;;;;;;;;;;;;;;5096979;28;19960;-70
2023/02/18 09:28:40;;;;;;;;;;;;;;;;;;5096692;28;19954;-70
2023/02/18 09:31:06;;;;;;;;;;;;;;;;;;5096977;28;19912;-70
2023/02/18 09:33:32;;;;;;;;;;;;;;;;;;5096907;28;19908;-70
2023/02/18 09:35:58;;;;;;;;;;;;;;;;;;5096678;28;20015;-72
2023/02/18 09:38:24;;;;;;;;;;;;;;;;;;5096852;28;19909;-72
2023/02/18 09:40:50;;;;;;;;;;;;;;;;;;5097073;28;20466;-71
2023/02/18 09:43:16;;;;;;;;;;;;;;;;;;5096338;28;20002;-71
2023/02/18 09:45:42;;;;;;;;;;;;;;;;;;5096726;28;19924;-71
2023/02/18 09:48:08;;;;;;;;;;;;;;;;;;5078593;28;19908;-71
2023/02/18 09:50:34;;;;;;;;;;;;;;;;;;5077768;28;20006;-71
2023/02/18 09:53:00;;;;;;;;;;;;;;;;;;5078394;28;19962;-71
2023/02/18 09:55:25;;;;;;;;;;;;;;;;;;5096499;28;19908;-72
2023/02/18 09:57:51;;;;;;;;;;;;;;;;;;5096089;28;19912;-71
2023/02/18 10:00:17;;;;;;;;;;;;;;;;;;5096363;28;19908;-72
2023/02/18 10:02:43;;;;;;;;;;;;;;;;;;5096359;28;19908;-72
2023/02/18 10:05:09;;;;;;;;;;;;;;;;;;5077697;28;19923;-71
2023/02/18 10:07:35;;;;;;;;;;;;;;;;;;5096231;28;19943;-71
2023/02/18 10:11:21;;;;;;;;;;;;;;;;;;5111589;27;19912;-71
2023/02/18 10:14:20;;;;;;;;;;;;;;;;;;5091879;27;19919;-71
2023/02/18 10:16:46;;;;;;;;;;;;;;;;;;5090086;28;19912;-71
2023/02/18 10:19:12;;;;;;;;;;;;;;;;;;5090870;28;19909;-72
2023/02/18 10:21:38;;;;;;;;;;;;;;;;;;5091251;28;19943;-72
2023/02/18 10:30:19;;;;;;;;;;;;;;;;;;5112273;27;19918;-72
2023/02/18 10:32:45;;;;;;;;;;;;;;;;;;5111381;28;19962;-71
2023/02/18 10:37:32;;;;;;;;;;;;;;;;;;5111848;27;19916;-72
2023/02/18 10:41:59;;;;;;;;;;;;;;;;;;5112188;27;19916;-72
2023/02/18 10:44:25;;;;;;;;;;;;;;;;;;5111672;28;20341;-71
2023/02/18 10:47:02;;;;;;;;;;;;;;;;;;5152385;27;20341;-72
2023/02/18 10:51:19;;;;;;;;;;;;;;;;;;5111980;27;20390;-72
2023/02/18 10:53:45;;;;;;;;;;;;;;;;;;5111204;28;20003;-72
2023/02/18 11:00:00;;;;;;;;;;;;;;;;;;5111720;27;20384;-72
2023/02/18 11:02:28;;;;;;;;;;;;;;;;;;5110318;28;20376;-72
2023/02/18 11:04:54;;;;;;;;;;;;;;;;;;5111855;28;19912;-72
2023/02/18 11:07:20;;;;;;;;;;;;;;;;;;5109837;28;19912;-72
2023/02/18 11:09:49;;;;;;;;;;;;;;;;;;5111559;28;19915;-72
2023/02/18 11:12:15;;;;;;;;;;;;;;;;;;5111480;28;20360;-72
2023/02/18 11:14:41;;;;;;;;;;;;;;;;;;5111088;28;19908;-72
2023/02/18 11:17:07;;;;;;;;;;;;;;;;;;5109736;28;20002;-72
2023/02/18 11:19:33;;;;;;;;;;;;;;;;;;5109892;28;20015;-72
2023/02/18 11:24:28;;;;;;;;;;;;;;;;;;5111875;27;20246;-72
2023/02/18 11:26:54;;;;;;;;;;;;;;;;;;5112036;28;20011;-72
2023/02/18 11:30:45;;;;;;;;;;;;;;;;;;5111746;27;19916;-71
2023/02/18 11:33:11;;;;;;;;;;;;;;;;;;5110323;28;19999;-72
2023/02/18 11:36:42;;;;;;;;;;;;;;;;;;5091518;28;19917;-71
2023/02/18 11:40:05;;;;;;;;;;;;;;;;;;5111878;27;19916;-72
2023/02/18 11:42:58;;;;;;;;;;;;;;;;;;5132039;27;19922;-71
2023/02/18 11:45:24;;;;;;;;;;;;;;;;;;5113700;28;19998;-72
2023/02/18 11:48:15;;;;;;;;;;;;;;;;;;5091659;27;19917;-72
2023/02/18 11:50:55;;;;;;;;;;;;;;;;;;5112289;27;19916;-72
2023/02/18 11:53:20;;;;;;;;;;;;;;;;;;5110667;28;20347;-72
2023/02/18 11:56:10;;;;;;;;;;;;;;;;;;5091522;27;19916;-72
2023/02/18 11:58:36;;;;;;;;;;;;;;;;;;5091361;28;20007;-72
2023/02/18 12:01:01;;;;;;;;;;;;;;;;;;5091290;28;19962;-72
2023/02/18 12:03:27;;;;;;;;;;;;;;;;;;5090946;28;20420;-70
2023/02/18 12:05:53;;;;;;;;;;;;;;;;;;5091103;28;19908;-72
2023/02/18 12:08:19;;;;;;;;;;;;;;;;;;5091078;28;19912;-70
2023/02/18 12:10:45;;;;;;;;;;;;;;;;;;5090595;28;19908;-70
2023/02/18 12:13:11;;;;;;;;;;;;;;;;;;5090886;28;19916;-69
2023/02/18 12:15:37;;;;;;;;;;;;;;;;;;5089381;28;19932;-69
2023/02/18 12:18:03;;;;;;;;;;;;;;;;;;5089206;28;19915;-70
2023/02/18 12:20:29;;;;;;;;;;;;;;;;;;5090907;28;19912;-70
2023/02/18 12:22:55;;;;;;;;;;;;;;;;;;5090778;28;20045;-70
2023/02/18 12:25:21;;;;;;;;;;;;;;;;;;5090348;28;19953;-71
2023/02/18 12:27:59;;;;;;;;;;;;;;;;;;5111660;27;19938;-72
2023/02/18 12:30:25;;;;;;;;;;;;;;;;;;5111546;28;20411;-69
2023/02/18 12:32:51;;;;;;;;;;;;;;;;;;5111175;28;19955;-69
2023/02/18 12:35:17;;;;;;;;;;;;;;;;;;5111498;28;19915;-72
2023/02/18 12:37:42;;;;;;;;;;;;;;;;;;5111123;28;19951;-72
2023/02/18 12:40:08;;;;;;;;;;;;;;;;;;5110174;28;19912;-72
2023/02/18 12:44:44;;;;;;;;;;;;;;;;;;5091055;27;19923;-70
2023/02/18 12:47:10;;;;;;;;;;;;;;;;;;5091293;28;19963;-72
2023/02/18 12:49:36;;;;;;;;;;;;;;;;;;5091256;28;19940;-71
2023/02/18 12:52:01;;;;;;;;;;;;;;;;;;5090791;28;19908;-72
2023/02/18 12:54:27;;;;;;;;;;;;;;;;;;5089971;28;19912;-70
2023/02/18 12:59:08;;;;;;;;;;;;;;;;;;5111476;27;19922;-73
2023/02/18 13:01:34;;;;;;;;;;;;;;;;;;5110343;28;20003;-72
2023/02/18 13:04:00;;;;;;;;;;;;;;;;;;5111587;28;19943;-71
2023/02/18 13:06:26;;;;;;;;;;;;;;;;;;5111151;28;19908;-71
2023/02/18 13:09:38;;;;;;;;;;;;;;;;;;5112190;27;20391;-70
2023/02/18 13:12:04;;;;;;;;;;;;;;;;;;5111556;28;20003;-70
2023/02/18 13:16:55;;;;;;;;;;;;;;;;;;5111689;27;19916;-70
2023/02/18 13:19:21;;;;;;;;;;;;;;;;;;5110325;28;20007;-70
2023/02/18 13:21:47;;;;;;;;;;;;;;;;;;5111128;28;19961;-72
2023/02/18 13:24:13;;;;;;;;;;;;;;;;;;5111535;28;19969;-72
2023/02/18 13:26:39;;;;;;;;;;;;;;;;;;5111507;28;19970;-72
2023/02/18 13:29:45;;;;;;;;;;;;;;;;;;5092055;27;20303;-71
2023/02/18 13:34:33;;;;;;;;;;;;;;;;;;5091104;27;19919;-71
2023/02/18 13:36:59;;;;;;;;;;;;;;;;;;5091287;28;19919;-71
2023/02/18 13:39:25;;;;;;;;;;;;;;;;;;5091187;28;19908;-71
2023/02/18 13:41:50;;;;;;;;;;;;;;;;;;5089493;28;19955;-70
2023/02/18 13:44:16;;;;;;;;;;;;;;;;;;5089820;28;19913;-71
2023/02/18 13:49:35;;;;;;;;;;;;;;;;;;5070897;28;19913;-72
2023/02/18 13:52:01;;;;;;;;;;;;;;;;;;5071016;28;20011;-72
2023/02/18 13:54:59;;;;;;;;;;;;;;;;;;5111664;27;20291;-72
2023/02/18 13:57:25;;;;;;;;;;;;;;;;;;5112125;28;19998;-72
2023/02/18 13:59:51;;;;;;;;;;;;;;;;;;5111611;28;19931;-72
2023/02/18 14:02:17;;;;;;;;;;;;;;;;;;5109850;28;19962;-71
2023/02/18 14:04:43;;;;;;;;;;;;;;;;;;5110174;28;19908;-70
2023/02/18 14:07:09;;;;;;;;;;;;;;;;;;5110137;28;19996;-70
2023/02/18 14:13:03;;;;;;;;;;;;;;;;;;5091467;27;19918;-71
2023/02/18 14:15:29;;;;;;;;;;;;;;;;;;5091260;28;19998;-72
2023/02/18 14:17:55;;;;;;;;;;;;;;;;;;5089355;28;19985;-71
2023/02/18 14:20:21;;;;;;;;;;;;;;;;;;5091152;28;19915;-71
2023/02/18 14:22:47;;;;;;;;;;;;;;;;;;5089778;28;19908;-71
2023/02/18 14:25:13;;;;;;;;;;;;;;;;;;5090611;28;19953;-72
2023/02/18 14:27:39;;;;;;;;;;;;;;;;;;5089648;28;19912;-72
2023/02/18 14:30:06;;;;;;;;;;;;;;;;;;5090708;28;19954;-71
2023/02/18 14:33:02;;;;;;;;;;;;;;;;;;5153117;27;20358;-72
2023/02/18 14:37:26;;;;;;;;;;;;;;;;;;5091178;27;19923;-72
2023/02/18 14:39:51;;;;;;;;;;;;;;;;;;5091399;28;19913;-72
2023/02/18 14:42:17;;;;;;;;;;;;;;;;;;5091212;28;19916;-72
2023/02/18 14:44:43;;;;;;;;;;;;;;;;;;5090858;28;19915;-72
2023/02/18 14:47:50;;;;;;;;;;;;;;;;;;5112269;27;19970;-72
2023/02/18 14:50:16;;;;;;;;;;;;;;;;;;5111543;28;20003;-72
2023/02/18 14:52:42;;;;;;;;;;;;;;;;;;5109848;28;19908;-72
2023/02/18 14:55:08;;;;;;;;;;;;;;;;;;5111534;28;19915;-72
2023/02/18 14:57:34;;;;;;;;;;;;;;;;;;5111524;28;19908;-72
2023/02/18 15:00:00;;;;;;;;;;;;;;;;;;5111045;28;19912;-72
2023/02/18 15:02:26;;;;;;;;;;;;;;;;;;5111388;28;20391;-72
2023/02/18 15:04:52;;;;;;;;;;;;;;;;;;5111613;28;19915;-72
2023/02/18 15:07:18;;;;;;;;;;;;;;;;;;5111198;28;20288;-72
2023/02/18 15:13:43;;;;;;;;;;;;;;;;;;5111420;27;19934;-71
2023/02/18 15:17:39;;;;;;;;;;;;;;;;;;5174174;27;20369;-71
2023/02/18 15:20:05;;;;;;;;;;;;;;;;;;5173172;27;19957;-70
2023/02/18 15:24:08;;;;;;;;;;;;;;;;;;5112390;27;19922;-71
2023/02/18 15:26:34;;;;;;;;;;;;;;;;;;5111202;28;20006;-71
2023/02/18 15:29:00;;;;;;;;;;;;;;;;;;5110573;28;19908;-73
2023/02/18 15:31:26;;;;;;;;;;;;;;;;;;5112052;28;19908;-70
2023/02/18 15:34:51;;;;;;;;;;;;;;;;;;5111502;27;19916;-72
2023/02/18 15:37:17;;;;;;;;;;;;;;;;;;5111683;28;20421;-72
2023/02/18 15:41:43;;;;;;;;;;;;;;;;;;5111668;27;19923;-72
2023/02/18 15:44:09;;;;;;;;;;;;;;;;;;5111540;28;19995;-72
2023/02/18 15:46:35;;;;;;;;;;;;;;;;;;5111514;28;19961;-72
2023/02/18 15:51:54;;;;;;;;;;;;;;;;;;5152964;27;20018;-72
2023/02/18 15:54:20;;;;;;;;;;;;;;;;;;5152819;27;19958;-72
2023/02/18 15:58:04;;;;;;;;;;;;;;;;;;5091775;27;19912;-72
2023/02/18 16:02:03;;;;;;;;;;;;;;;;;;5095736;27;2206100;-72
2023/02/18 16:04:29;;;;;;;;;;;;;;;;;;5154979;27;19911;-73
2023/02/18 16:06:55;;;;;;;;;;;;;;;;;;5154933;27;20024;-71
2023/02/18 16:09:21;;;;;;;;;;;;;;;;;;5173261;27;19907;-71
2023/02/18 16:11:47;;;;;;;;;;;;;;;;;;5173531;27;19907;-71
2023/02/18 16:14:13;;;;;;;;;;;;;;;;;;5173402;27;19907;-72
2023/02/18 16:16:39;;;;;;;;;;;;;;;;;;5154471;27;19907;-71
2023/02/18 16:19:05;;;;;;;;;;;;;;;;;;5154615;27;19955;-71
2023/02/18 16:21:33;;;;;;;;;;;;;;;;;;5154485;27;19919;-71
2023/02/18 16:23:59;;;;;;;;;;;;;;;;;;5173093;27;19907;-71
2023/02/18 16:26:25;;;;;;;;;;;;;;;;;;5173193;27;19934;-71
2023/02/18 16:28:50;;;;;;;;;;;;;;;;;;5173215;27;20370;-71
2023/02/18 16:31:16;;;;;;;;;;;;;;;;;;5172772;27;20278;-72
2023/02/18 16:33:42;;;;;;;;;;;;;;;;;;5173332;27;20324;-72
2023/02/18 16:36:08;;;;;;;;;;;;;;;;;;5154536;27;19938;-72
2023/02/18 16:38:34;;;;;;;;;;;;;;;;;;5172677;27;19994;-72
2023/02/18 16:41:00;;;;;;;;;;;;;;;;;;5172940;27;19919;-72
2023/02/18 16:43:31;;;;;;;;;;;;;;;;;;5172885;27;19907;-72
2023/02/18 16:45:57;;;;;;;;;;;;;;;;;;5172543;27;19907;-72
2023/02/18 16:48:23;;;;;;;;;;;;;;;;;;5172869;27;19907;-71
2023/02/18 16:50:49;;;;;;;;;;;;;;;;;;5172411;27;19913;-71
2023/02/18 16:53:15;;;;;;;;;;;;;;;;;;5172715;27;20339;-71
2023/02/18 16:55:41;;;;;;;;;;;;;;;;;;5172633;27;19951;-71
2023/02/18 16:58:07;;;;;;;;;;;;;;;;;;5172525;27;19911;-71
2023/02/18 17:00:33;;;;;;;;;;;;;;;;;;5172373;27;19919;-72
2023/02/18 17:02:59;;;;;;;;;;;;;;;;;;5153934;27;20378;-72
2023/02/18 17:05:25;;;;;;;;;;;;;;;;;;5172208;27;19911;-71
2023/02/18 17:07:51;;;;;;;;;;;;;;;;;;5153754;27;19914;-72
2023/02/18 17:10:17;;;;;;;;;;;;;;;;;;5172601;27;20382;-71
2023/02/18 17:12:43;;;;;;;;;;;;;;;;;;5162239;27;19907;-71
2023/02/18 17:15:09;;;;;;;;;;;;;;;;;;5158667;27;19907;-72
2023/02/18 17:17:35;;;;;;;;;;;;;;;;;;5158462;27;20374;-72
2023/02/18 17:20:01;;;;;;;;;;;;;;;;;;5139330;27;20417;-72
2023/02/18 17:22:27;;;;;;;;;;;;;;;;;;5158242;27;19914;-72
2023/02/18 17:24:53;;;;;;;;;;;;;;;;;;5158561;27;19918;-72
2023/02/18 17:27:19;;;;;;;;;;;;;;;;;;5139365;27;19907;-72
2023/02/18 17:29:44;;;;;;;;;;;;;;;;;;5158227;27;19907;-72
2023/02/18 17:32:10;;;;;;;;;;;;;;;;;;5158305;27;19907;-72
2023/02/18 17:34:39;;;;;;;;;;;;;;;;;;5158081;27;19921;-72
2023/02/18 17:37:05;;;;;;;;;;;;;;;;;;5158538;27;19918;-70
2023/02/18 17:39:31;;;;;;;;;;;;;;;;;;5158950;27;19907;-71